createdAt,value
2019-01-05T00:01:33.679Z,12.57
2019-01-05T00:04:52.250Z,14.43
2019-01-05T00:07:53.086Z,12.97
2019-01-05T00:10:58.614Z,15.10
2019-01-05T00:14:04.461Z,10.50
2019-01-05T00:17:14.585Z,10.67
2019-01-05T00:20:22.676Z,12.83
2019-01-05T00:23:36.017Z,13.03
2019-01-05T00:26:43.339Z,13.00
2019-01-05T00:29:51.739Z,11.10
2019-01-05T00:32:58.919Z,12.63
2019-01-05T00:36:06.165Z,16.40
2019-01-05T00:39:08.590Z,12.37
2019-01-05T00:42:20.804Z,11.13
2019-01-05T00:45:26.739Z,12.00
2019-01-05T00:48:32.549Z,13.23
2019-01-05T00:51:54.105Z,12.40
2019-01-05T00:55:00.318Z,13.57
2019-01-05T00:58:07.369Z,12.20
2019-01-05T01:01:08.367Z,14.10
2019-01-05T01:04:12.997Z,13.87
2019-01-05T01:07:19.219Z,15.57
2019-01-05T01:10:47.446Z,13.23
2019-01-05T01:13:54.513Z,14.70
2019-01-05T01:16:59.474Z,14.73
2019-01-05T01:20:01.274Z,17.13
2019-01-05T01:23:09.072Z,19.70
2019-01-05T01:26:14.707Z,17.03
2019-01-05T01:29:20.711Z,14.37
2019-01-05T01:32:30.907Z,15.30
2019-01-05T01:35:50.141Z,17.70
2019-01-05T01:39:11.055Z,19.40
2019-01-05T01:42:24.615Z,16.57
2019-01-05T01:45:34.701Z,20.30
2019-01-05T01:49:00.565Z,20.77
2019-01-05T01:52:27.579Z,16.13
2019-01-05T01:55:40.864Z,19.77
2019-01-05T01:58:51.559Z,22.03
2019-01-05T02:02:02.813Z,16.63
2019-01-05T02:05:18.758Z,20.83
2019-01-05T02:08:30.628Z,17.70
2019-01-05T02:14:56.182Z,21.10
2019-01-05T02:18:40.454Z,22.90
2019-01-05T02:22:23.581Z,17.40
2019-01-05T02:25:40.567Z,17.10
2019-01-05T02:29:37.995Z,21.00
2019-01-05T02:33:52.706Z,22.47
2019-01-05T02:37:56.651Z,18.40
2019-01-05T02:41:33.892Z,19.20
2019-01-05T02:45:29.696Z,17.97
2019-01-05T02:49:02.921Z,14.40
2019-01-05T02:53:08.202Z,16.33
2019-01-05T02:56:44.352Z,16.27
2019-01-05T03:00:40.709Z,15.07
2019-01-05T03:04:22.785Z,13.33
2019-01-05T03:08:25.552Z,11.93
2019-01-05T03:15:54.262Z,14.20
2019-01-05T03:19:50.551Z,12.07
2019-01-05T03:23:45.805Z,13.50
2019-01-05T03:27:14.351Z,12.70
2019-01-05T03:30:54.877Z,10.13
2019-01-05T03:34:27.630Z,16.53
2019-01-05T03:38:09.940Z,10.93
2019-01-05T03:41:57.117Z,12.60
2019-01-05T03:45:21.424Z,20.43
2019-01-05T03:49:10.033Z,13.13
2019-01-05T03:52:56.733Z,15.40
2019-01-05T03:56:33.672Z,12.80
2019-01-05T04:00:11.820Z,13.37
2019-01-05T04:03:55.996Z,14.63
2019-01-05T04:07:37.649Z,13.50
2019-01-05T04:11:23.659Z,14.57
2019-01-05T04:15:06.246Z,13.57
2019-01-05T04:18:46.787Z,9.50
2019-01-05T04:22:37.046Z,13.07
2019-01-05T04:26:17.015Z,15.23
2019-01-05T04:29:46.827Z,10.87
2019-01-05T04:33:41.405Z,11.73
2019-01-05T04:37:52.074Z,9.67
2019-01-05T04:41:17.180Z,9.90
2019-01-05T04:44:57.750Z,9.87
2019-01-05T04:48:42.321Z,7.70
2019-01-05T04:52:18.853Z,12.13
2019-01-05T04:56:14.146Z,11.30
2019-01-05T05:00:23.798Z,10.83
2019-01-05T05:04:21.747Z,9.60
2019-01-05T05:07:59.355Z,10.70
2019-01-05T05:11:43.338Z,13.83
2019-01-05T05:15:57.946Z,9.67
2019-01-05T05:19:59.039Z,9.07
2019-01-05T05:23:50.630Z,7.83
2019-01-05T05:27:34.457Z,10.68
2019-01-05T05:31:19.439Z,11.63
2019-01-05T05:35:14.719Z,8.37
2019-01-05T05:38:55.672Z,7.62
2019-01-05T05:42:48.975Z,8.20
2019-01-05T05:46:24.107Z,5.53
2019-01-05T05:50:05.138Z,5.20
2019-01-05T05:54:06.856Z,5.50
2019-01-05T05:58:02.203Z,4.78
2019-01-05T06:01:43.770Z,5.20
2019-01-05T06:05:36.539Z,3.42
2019-01-05T06:09:21.189Z,4.03
2019-01-05T06:13:02.930Z,2.73
2019-01-05T06:16:50.338Z,1.97
2019-01-05T06:20:33.577Z,2.57
2019-01-05T06:24:36.242Z,2.25
2019-01-05T06:32:11.206Z,2.30
2019-01-05T06:36:26.345Z,1.90
2019-01-05T06:40:07.379Z,2.27
2019-01-05T06:44:03.405Z,2.40
2019-01-05T06:48:11.838Z,2.95
2019-01-05T06:52:03.519Z,2.00
2019-01-05T06:56:01.674Z,2.10
2019-01-05T07:00:05.978Z,1.75
2019-01-05T07:03:40.354Z,1.75
2019-01-05T07:07:31.398Z,1.75
2019-01-05T07:11:14.506Z,2.20
2019-01-05T07:15:02.972Z,2.07
2019-01-05T07:19:07.187Z,1.87
2019-01-05T07:22:46.915Z,2.90
2019-01-05T07:26:38.625Z,2.30
2019-01-05T07:30:36.354Z,2.07
2019-01-05T07:34:33.130Z,2.17
2019-01-05T07:38:12.498Z,2.53
2019-01-05T07:42:02.789Z,3.27
2019-01-05T07:45:43.130Z,2.00
2019-01-05T07:49:40.906Z,2.37
2019-01-05T07:53:59.255Z,4.43
2019-01-05T07:57:41.732Z,3.23
2019-01-05T08:01:42.138Z,2.33
2019-01-05T08:05:18.708Z,2.63
2019-01-05T08:09:16.449Z,2.40
2019-01-05T08:13:12.692Z,2.43
2019-01-05T08:17:20.448Z,3.00
2019-01-05T08:21:09.429Z,2.93
2019-01-05T08:24:45.702Z,2.40
2019-01-05T08:28:44.335Z,3.03
2019-01-05T08:32:35.414Z,2.73
2019-01-05T08:36:12.974Z,3.33
2019-01-05T08:39:52.742Z,4.23
2019-01-05T08:43:49.359Z,2.90
2019-01-05T08:47:41.205Z,3.73
2019-01-05T08:51:30.502Z,2.77
2019-01-05T08:55:01.561Z,2.43
2019-01-05T08:58:57.992Z,4.33
2019-01-05T09:02:24.562Z,3.93
2019-01-05T09:06:13.198Z,2.40
2019-01-05T09:09:59.619Z,3.67
2019-01-05T09:14:06.098Z,2.90
2019-01-05T09:18:16.357Z,3.10
2019-01-05T09:22:17.324Z,1.97
2019-01-05T09:25:49.658Z,2.87
2019-01-05T09:29:24.298Z,2.13
2019-01-05T09:33:08.858Z,2.80
2019-01-05T09:37:06.555Z,2.63
2019-01-05T09:40:43.498Z,2.80
2019-01-05T09:44:32.143Z,1.97
2019-01-05T09:48:33.841Z,3.97
2019-01-05T09:52:12.782Z,4.13
2019-01-05T09:56:00.430Z,3.43
2019-01-05T10:00:02.421Z,4.37
2019-01-05T10:04:10.951Z,2.03
2019-01-05T10:07:59.434Z,3.10
2019-01-05T10:11:41.708Z,3.10
2019-01-05T10:19:42.262Z,2.83
2019-01-05T10:23:24.010Z,2.20
2019-01-05T10:27:16.202Z,2.20
2019-01-05T10:30:58.302Z,2.40
2019-01-05T10:34:51.800Z,2.43
2019-01-05T10:38:52.861Z,4.17
2019-01-05T10:42:33.824Z,3.20
2019-01-05T10:46:05.448Z,2.60
2019-01-05T10:49:52.042Z,4.17
2019-01-05T10:53:32.290Z,3.50
2019-01-05T10:57:03.842Z,4.00
2019-01-05T11:00:41.581Z,2.70
2019-01-05T11:04:22.504Z,5.40
2019-01-05T11:07:53.736Z,2.83
2019-01-05T11:11:41.270Z,3.30
2019-01-05T11:15:28.474Z,3.40
2019-01-05T11:19:28.742Z,3.70
2019-01-05T11:22:58.497Z,2.83
2019-01-05T11:26:49.110Z,2.80
2019-01-05T11:30:45.043Z,2.47
2019-01-05T11:34:14.935Z,3.17
2019-01-05T11:38:04.318Z,6.27
2019-01-05T11:41:57.475Z,3.33
2019-01-05T11:45:44.816Z,3.17
2019-01-05T11:49:56.526Z,4.10
2019-01-05T11:53:47.067Z,3.73
2019-01-05T11:57:49.505Z,4.07
2019-01-05T12:01:47.522Z,4.33
2019-01-05T12:05:30.482Z,3.90
2019-01-05T12:09:14.505Z,5.63
2019-01-05T12:12:59.535Z,3.77
2019-01-05T12:16:51.713Z,7.10
2019-01-05T12:20:25.899Z,4.70
2019-01-05T12:24:16.530Z,4.40
2019-01-05T12:27:59.744Z,4.23
2019-01-05T12:32:18.659Z,5.87
2019-01-05T12:36:11.851Z,6.17
2019-01-05T12:40:03.151Z,4.40
2019-01-05T12:43:52.134Z,4.30
2019-01-05T12:47:41.210Z,4.40
2019-01-05T12:51:18.020Z,4.43
2019-01-05T12:55:05.308Z,4.90
2019-01-05T12:58:58.311Z,4.73
2019-01-05T13:02:59.292Z,4.67
2019-01-05T13:06:53.226Z,6.63
2019-01-05T13:10:40.484Z,5.00
2019-01-05T13:14:39.005Z,4.10
2019-01-05T13:18:20.794Z,3.87
2019-01-05T13:21:57.670Z,3.50
2019-01-05T13:25:40.885Z,3.77
2019-01-05T13:29:29.067Z,3.90
2019-01-05T13:33:16.843Z,4.63
2019-01-05T13:36:55.819Z,4.10
2019-01-05T13:40:47.098Z,4.37
2019-01-05T13:44:39.878Z,3.90
2019-01-05T13:48:30.413Z,4.10
2019-01-05T13:52:18.331Z,3.70
2019-01-05T13:55:39.501Z,3.27
2019-01-05T13:58:50.129Z,3.60
2019-01-05T14:01:53.724Z,4.87
2019-01-05T14:05:19.646Z,4.90
2019-01-05T14:08:27.389Z,4.13
2019-01-05T14:11:35.459Z,4.60
2019-01-05T14:14:39.239Z,3.83
2019-01-05T14:17:41.715Z,4.07
2019-01-05T14:21:03.953Z,6.20
2019-01-05T14:24:09.942Z,3.90
2019-01-05T14:27:26.670Z,4.37
2019-01-05T14:30:36.235Z,3.40
2019-01-05T14:33:42.098Z,3.80
2019-01-05T14:36:59.261Z,4.83
2019-01-05T14:40:09.670Z,3.40
2019-01-05T14:43:15.436Z,3.60
2019-01-05T14:46:29.099Z,3.70
2019-01-05T14:49:40.278Z,3.17
2019-01-05T14:52:49.703Z,3.43
2019-01-05T14:55:56.215Z,4.43
2019-01-05T14:59:05.529Z,3.63
2019-01-05T15:02:29.399Z,4.20
2019-01-05T15:05:54.550Z,3.43
2019-01-05T15:09:00.732Z,4.03
2019-01-05T15:12:03.238Z,3.60
2019-01-05T15:15:10.571Z,3.17
2019-01-05T15:18:20.789Z,3.40
2019-01-05T15:21:36.695Z,5.17
2019-01-05T15:24:46.696Z,5.03
2019-01-05T15:27:53.238Z,3.60
2019-01-05T15:31:00.709Z,3.50
2019-01-05T15:34:14.530Z,5.07
2019-01-05T15:37:25.271Z,4.47
2019-01-05T15:40:30.879Z,4.10
2019-01-05T15:43:36.894Z,3.30
2019-01-05T15:46:43.426Z,4.50
2019-01-05T15:50:00.243Z,4.20
2019-01-05T15:53:07.698Z,3.50
2019-01-05T15:56:19.426Z,3.20
2019-01-05T15:59:41.982Z,4.00
2019-01-05T16:02:48.230Z,3.60
2019-01-05T16:05:54.067Z,4.50
2019-01-05T16:09:16.722Z,4.70
2019-01-05T16:12:17.514Z,4.20
2019-01-05T16:15:41.082Z,4.53
2019-01-05T16:18:55.107Z,4.57
2019-01-05T16:22:01.208Z,4.13
2019-01-05T16:25:08.106Z,5.80
2019-01-05T16:28:20.986Z,5.00
2019-01-05T16:31:26.572Z,4.77
2019-01-05T16:34:33.087Z,5.73
2019-01-05T16:37:52.278Z,5.37
2019-01-05T16:41:02.777Z,3.77
2019-01-05T16:44:18.128Z,4.30
2019-01-05T16:47:22.810Z,4.20
2019-01-05T16:50:29.078Z,4.73
2019-01-05T16:53:35.739Z,4.90
2019-01-05T16:56:54.410Z,7.30
2019-01-05T17:00:02.030Z,3.53
2019-01-05T17:03:18.243Z,4.77
2019-01-05T17:06:45.702Z,4.70
2019-01-05T17:09:51.969Z,4.10
2019-01-05T17:13:01.306Z,5.20
2019-01-05T17:16:13.330Z,5.50
2019-01-05T17:19:36.778Z,6.40
2019-01-05T17:22:45.212Z,7.50
2019-01-05T17:26:05.301Z,5.83
2019-01-05T17:29:18.952Z,7.70
2019-01-05T17:32:44.262Z,5.03
2019-01-05T17:35:50.334Z,6.10
2019-01-05T17:38:56.043Z,6.50
2019-01-05T17:42:02.254Z,7.00
2019-01-05T17:45:08.018Z,5.10
2019-01-05T17:48:13.494Z,6.07
2019-01-05T17:51:19.843Z,7.70
2019-01-05T17:54:26.711Z,5.60
2019-01-05T17:57:35.856Z,5.60
2019-01-05T18:00:47.102Z,4.33
2019-01-05T18:04:03.678Z,5.23
2019-01-05T18:07:27.062Z,4.90
2019-01-05T18:10:35.266Z,5.70
2019-01-05T18:13:40.778Z,6.97
2019-01-05T18:17:03.646Z,5.87
2019-01-05T18:20:09.880Z,5.83
2019-01-05T18:23:17.211Z,10.53
2019-01-05T18:26:28.290Z,7.80
2019-01-05T18:29:45.422Z,9.33
2019-01-05T18:33:01.941Z,11.97
2019-01-05T18:36:19.705Z,10.90
2019-01-05T18:39:30.390Z,8.30
2019-01-05T18:42:47.555Z,9.03
2019-01-05T18:45:57.889Z,6.77
2019-01-05T18:49:11.309Z,10.77
2019-01-05T18:52:16.934Z,7.17
2019-01-05T18:55:25.132Z,7.60
2019-01-05T18:58:32.182Z,8.93
2019-01-05T19:01:42.320Z,7.87
2019-01-05T19:04:48.440Z,7.70
2019-01-05T19:07:56.295Z,7.33
2019-01-05T19:11:06.756Z,8.47
2019-01-05T19:14:23.009Z,9.40
2019-01-05T19:17:28.958Z,10.17
2019-01-05T19:20:35.354Z,11.73
2019-01-05T19:23:51.861Z,9.77
2019-01-05T19:27:02.070Z,10.70
2019-01-05T19:30:04.406Z,10.93
2019-01-05T19:33:13.013Z,10.97
2019-01-05T19:36:14.903Z,10.30
2019-01-05T19:39:16.443Z,10.87
2019-01-05T19:42:22.253Z,12.10
2019-01-05T19:45:43.533Z,10.33
2019-01-05T19:48:49.569Z,11.97
2019-01-05T19:52:03.378Z,10.40
2019-01-05T19:55:07.430Z,12.30
2019-01-05T19:58:13.790Z,7.90
2019-01-05T20:01:32.858Z,12.10
2019-01-05T20:04:46.172Z,9.97
2019-01-05T20:08:06.058Z,9.80
2019-01-05T20:14:36.025Z,10.20
2019-01-05T20:17:42.047Z,7.93
2019-01-05T20:20:48.573Z,8.03
2019-01-05T20:23:54.306Z,9.53
2019-01-05T20:30:10.406Z,8.73
2019-01-05T20:33:15.918Z,9.30
2019-01-05T20:36:39.252Z,8.87
2019-01-05T20:39:57.761Z,7.17
2019-01-05T20:43:08.346Z,6.97
2019-01-05T20:46:14.228Z,7.13
2019-01-05T20:49:33.620Z,6.37
2019-01-05T20:52:39.758Z,7.53
2019-01-05T20:56:05.599Z,6.30
2019-01-05T20:59:16.220Z,5.83
2019-01-05T21:02:29.203Z,7.30
2019-01-05T21:05:29.833Z,7.30
2019-01-05T21:08:37.293Z,7.80
2019-01-05T21:11:48.230Z,6.53
2019-01-05T21:15:00.578Z,8.17
2019-01-05T21:18:05.799Z,6.33
2019-01-05T21:21:11.408Z,7.00
2019-01-05T21:24:17.225Z,8.10
2019-01-05T21:27:19.595Z,7.83
2019-01-05T21:30:27.745Z,7.63
2019-01-05T21:33:39.625Z,8.47
2019-01-05T21:36:45.389Z,7.63
2019-01-05T21:39:59.026Z,8.20
2019-01-05T21:43:21.538Z,6.53
2019-01-05T21:46:26.849Z,8.77
2019-01-05T21:49:43.018Z,7.57
2019-01-05T21:52:55.821Z,7.27
2019-01-05T21:56:13.698Z,10.10
2019-01-05T21:59:20.049Z,8.50
2019-01-05T22:02:22.950Z,10.13
2019-01-05T22:05:36.322Z,7.13
2019-01-05T22:08:37.918Z,9.43
2019-01-05T22:11:50.114Z,8.87
2019-01-05T22:14:56.121Z,10.53
2019-01-05T22:18:06.737Z,7.30
2019-01-05T22:21:20.803Z,8.70
2019-01-05T22:24:40.372Z,7.30
2019-01-05T22:28:05.902Z,7.43
2019-01-05T22:31:21.982Z,8.60
2019-01-05T22:34:39.495Z,8.20
2019-01-05T22:37:45.044Z,9.73
2019-01-05T22:40:51.638Z,9.30
2019-01-05T22:44:16.830Z,9.07
2019-01-05T22:47:24.578Z,8.20
2019-01-05T22:50:30.732Z,8.37
2019-01-05T22:53:36.681Z,9.67
2019-01-05T22:56:53.575Z,9.40
2019-01-05T22:59:59.674Z,9.83
2019-01-05T23:03:09.901Z,8.57
2019-01-05T23:06:28.868Z,8.37
2019-01-05T23:09:35.134Z,9.40
2019-01-05T23:12:45.198Z,9.00
2019-01-05T23:15:51.046Z,10.57
2019-01-05T23:18:58.543Z,7.70
2019-01-05T23:22:06.584Z,7.70
2019-01-05T23:25:07.041Z,7.57
2019-01-05T23:28:23.039Z,7.40
2019-01-05T23:31:33.700Z,7.03
2019-01-05T23:34:49.682Z,6.93
2019-01-05T23:37:55.219Z,9.73
2019-01-05T23:41:01.102Z,6.67
2019-01-05T23:44:22.277Z,8.50
2019-01-05T23:47:40.878Z,7.60
2019-01-05T23:50:43.162Z,7.00
2019-01-05T23:53:50.589Z,8.13
2019-01-05T23:56:55.966Z,7.60
